Airport ICAO


08:09 UTC

8°C

Clear skies


An affordable passengers' Moving Map for your aircraft. Made for the iPad and the iPhone
More information here

LFMN Cote D'Azur


Nice FRANCE   VFR CAVOK


METAR LFMN 170800Z 33009KT CAVOK 08/M00 Q1030 NOSIG 0h09min

TAF LFMN 170200Z 1703/1809 33010KT CAVOK PROB40 TEMPO 1703/1710 3000 BR BKN010 BECMG 1711/1713 18006KT BECMG 1719/1721 33010KT PROB40 TEMPO 1721/1803 3000 BR BKN010 6h09min





NOTAMS

OPEN